createdAt,value
2018-09-18T00:02:22.720Z,98163.19
2018-09-18T00:04:51.431Z,98172.63
2018-09-18T00:07:20.110Z,98176.11
2018-09-18T00:09:48.936Z,98175.61
2018-09-18T00:12:17.755Z,98180.13
2018-09-18T00:14:46.566Z,98177.91
2018-09-18T00:17:15.670Z,98185.08
2018-09-18T00:19:44.523Z,98184.58
2018-09-18T00:22:13.110Z,98186.55
2018-09-18T00:24:41.905Z,98186.80
2018-09-18T00:27:10.677Z,98178.22
2018-09-18T00:29:39.683Z,98184.52
2018-09-18T00:32:08.287Z,98180.77
2018-09-18T00:34:37.310Z,98183.44
2018-09-18T00:37:06.575Z,98177.26
2018-09-18T00:39:35.380Z,98177.61
2018-09-18T00:42:04.033Z,98169.58
2018-09-18T00:44:33.315Z,98173.13
2018-09-18T00:47:02.554Z,98173.80
2018-09-18T00:49:31.425Z,98174.92
2018-09-18T00:52:00.844Z,98177.09
2018-09-18T00:54:29.556Z,98174.92
2018-09-18T00:56:59.359Z,98174.03
2018-09-18T00:59:28.626Z,98169.05
2018-09-18T01:01:57.624Z,98170.68
2018-09-18T01:04:26.428Z,98168.78
2018-09-18T01:06:55.187Z,98170.56
2018-09-18T01:09:24.021Z,98168.81
2018-09-18T01:11:52.735Z,98166.47
2018-09-18T01:14:21.560Z,98171.06
2018-09-18T01:16:51.198Z,98171.56
2018-09-18T01:19:20.025Z,98169.48
2018-09-18T01:21:48.770Z,98167.97
2018-09-18T01:24:17.419Z,98163.34
2018-09-18T01:26:47.595Z,98164.41
2018-09-18T01:29:16.721Z,98160.16
2018-09-18T01:31:45.593Z,98166.26
2018-09-18T01:34:14.584Z,98163.23
2018-09-18T01:36:43.315Z,98167.86
2018-09-18T01:39:12.241Z,98168.27
2018-09-18T01:41:41.431Z,98164.72
2018-09-18T01:44:10.541Z,98167.53
2018-09-18T01:46:39.949Z,98164.83
2018-09-18T01:49:08.880Z,98167.27
2018-09-18T01:51:37.595Z,98170.84
2018-09-18T01:54:06.541Z,98164.09
2018-09-18T01:56:35.904Z,98163.01
2018-09-18T01:59:04.535Z,98167.91
2018-09-18T02:01:33.296Z,98166.31
2018-09-18T02:04:02.401Z,98166.62
2018-09-18T02:06:31.344Z,98165.27
2018-09-18T02:09:00.831Z,98166.89
2018-09-18T02:11:30.722Z,98165.73
2018-09-18T02:13:59.414Z,98167.20
2018-09-18T02:16:28.344Z,98168.86
2018-09-18T02:18:56.979Z,98164.51
2018-09-18T02:21:25.695Z,98166.58
2018-09-18T02:23:54.472Z,98164.51
2018-09-18T02:26:23.845Z,98163.64
2018-09-18T02:28:52.730Z,98159.70
2018-09-18T02:31:21.595Z,98164.48
2018-09-18T02:33:50.261Z,98163.67
2018-09-18T02:36:19.402Z,98161.27
2018-09-18T02:38:48.835Z,98161.24
2018-09-18T02:41:18.042Z,98158.27
2018-09-18T02:43:47.084Z,98155.09
2018-09-18T02:46:17.376Z,98157.94
2018-09-18T02:48:46.479Z,98161.78
2018-09-18T02:51:15.372Z,98154.94
2018-09-18T02:53:43.980Z,98158.77
2018-09-18T02:56:12.834Z,98158.72
2018-09-18T02:58:41.552Z,98152.53
2018-09-18T03:01:10.390Z,98157.78
2018-09-18T03:03:39.869Z,98153.75
2018-09-18T03:06:09.252Z,98151.06
2018-09-18T03:08:38.020Z,98157.80
2018-09-18T03:11:06.754Z,98155.38
2018-09-18T03:13:35.831Z,98157.27
2018-09-18T03:16:05.204Z,98157.30
2018-09-18T03:18:33.898Z,98158.13
2018-09-18T03:21:03.508Z,98155.94
2018-09-18T03:23:32.636Z,98155.22
2018-09-18T03:26:01.322Z,98153.41
2018-09-18T03:28:30.302Z,98153.19
2018-09-18T03:30:59.322Z,98150.76
2018-09-18T03:33:28.975Z,98153.73
2018-09-18T03:35:57.872Z,98153.19
2018-09-18T03:38:27.210Z,98159.34
2018-09-18T03:40:56.201Z,98165.36
2018-09-18T03:43:25.161Z,98163.80
2018-09-18T03:45:54.005Z,98165.38
2018-09-18T03:48:22.603Z,98163.71
2018-09-18T03:50:52.601Z,98157.58
2018-09-18T03:53:21.270Z,98154.08
2018-09-18T03:55:50.780Z,98152.77
2018-09-18T03:58:19.498Z,98154.40
2018-09-18T04:00:48.180Z,98155.21
2018-09-18T04:03:17.028Z,98158.69
2018-09-18T04:05:45.705Z,98149.84
2018-09-18T04:08:14.918Z,98148.68
2018-09-18T04:10:43.816Z,98150.72
2018-09-18T04:13:12.545Z,98148.86
2018-09-18T04:15:42.721Z,98151.02
2018-09-18T04:18:13.615Z,98155.30
2018-09-18T04:20:42.706Z,98152.58
2018-09-18T04:23:11.355Z,98144.79
2018-09-18T04:25:40.168Z,98150.67
2018-09-18T04:28:09.560Z,98152.77
2018-09-18T04:30:38.727Z,98149.00
2018-09-18T04:33:07.607Z,98151.42
2018-09-18T04:35:36.276Z,98148.73
2018-09-18T04:38:04.942Z,98149.08
2018-09-18T04:40:33.755Z,98152.31
2018-09-18T04:43:03.075Z,98149.15
2018-09-18T04:45:31.815Z,98151.06
2018-09-18T04:48:01.434Z,98154.56
2018-09-18T04:50:30.667Z,98162.91
2018-09-18T04:52:59.407Z,98157.51
2018-09-18T04:55:28.016Z,98155.01
2018-09-18T04:57:56.940Z,98160.41
2018-09-18T05:00:25.871Z,98161.00
2018-09-18T05:02:54.777Z,98172.94
2018-09-18T05:05:23.572Z,98169.67
2018-09-18T05:07:52.276Z,98175.02
2018-09-18T05:10:21.051Z,98171.78
2018-09-18T05:12:49.881Z,98174.50
2018-09-18T05:15:19.328Z,98172.30
2018-09-18T05:17:48.282Z,98181.72
2018-09-18T05:20:17.038Z,98180.39
2018-09-18T05:22:45.838Z,98183.05
2018-09-18T05:25:14.528Z,98181.91
2018-09-18T05:27:44.036Z,98184.59
2018-09-18T05:30:13.021Z,98177.74
2018-09-18T05:32:41.747Z,98179.06
2018-09-18T05:35:10.858Z,98183.80
2018-09-18T05:37:39.407Z,98185.34
2018-09-18T05:40:08.409Z,98193.81
2018-09-18T05:42:37.469Z,98194.45
2018-09-18T05:45:06.683Z,98190.53
2018-09-18T05:47:35.461Z,98190.34
2018-09-18T05:50:05.341Z,98197.96
2018-09-18T05:52:34.292Z,98193.44
2018-09-18T05:55:03.123Z,98195.06
2018-09-18T05:57:32.061Z,98200.13
2018-09-18T06:00:00.968Z,98202.83
2018-09-18T06:02:29.651Z,98201.91
2018-09-18T06:04:58.418Z,98196.56
2018-09-18T06:07:27.868Z,98208.01
2018-09-18T06:09:56.886Z,98204.30
2018-09-18T06:12:25.686Z,98197.99
2018-09-18T06:14:54.568Z,98202.69
2018-09-18T06:17:24.348Z,98203.47
2018-09-18T06:19:53.100Z,98208.00
2018-09-18T06:22:22.043Z,98204.75
2018-09-18T06:24:50.697Z,98210.30
2018-09-18T06:27:19.467Z,98214.72
2018-09-18T06:29:49.002Z,98215.48
2018-09-18T06:32:18.022Z,98216.03
2018-09-18T06:34:48.200Z,98216.52
2018-09-18T06:37:17.276Z,98210.53
2018-09-18T06:39:46.718Z,98217.84
2018-09-18T06:42:15.622Z,98221.53
2018-09-18T06:44:44.781Z,98216.72
2018-09-18T06:47:13.573Z,98214.62
2018-09-18T06:49:43.116Z,98210.13
2018-09-18T06:52:12.812Z,98209.98
2018-09-18T06:54:41.600Z,98219.98
2018-09-18T06:57:10.592Z,98215.73
2018-09-18T06:59:40.520Z,98215.83
2018-09-18T07:02:09.651Z,98226.28
2018-09-18T07:04:39.256Z,98218.52
2018-09-18T07:07:08.116Z,98222.54
2018-09-18T07:09:37.698Z,98218.92
2018-09-18T07:12:06.767Z,98220.59
2018-09-18T07:14:35.921Z,98211.34
2018-09-18T07:17:04.978Z,98217.28
2018-09-18T07:19:35.321Z,98214.47
2018-09-18T07:22:04.712Z,98207.09
2018-09-18T07:24:33.653Z,98210.33
2018-09-18T07:27:02.891Z,98203.28
2018-09-18T07:29:31.950Z,98205.58
2018-09-18T07:32:00.586Z,98206.43
2018-09-18T07:34:29.732Z,98196.55
2018-09-18T07:36:58.631Z,98202.61
2018-09-18T07:39:27.272Z,98209.14
2018-09-18T07:41:56.147Z,98216.52
2018-09-18T07:44:24.916Z,98211.17
2018-09-18T07:46:53.601Z,98212.17
2018-09-18T07:49:23.006Z,98208.22
2018-09-18T07:51:51.725Z,98211.01
2018-09-18T07:54:21.569Z,98208.99
2018-09-18T07:56:50.231Z,98213.73
2018-09-18T07:59:19.048Z,98202.63
2018-09-18T08:01:47.993Z,98197.41
2018-09-18T08:04:16.903Z,98201.68
2018-09-18T08:06:45.602Z,98208.16
2018-09-18T08:09:14.729Z,98213.22
2018-09-18T08:11:43.549Z,98208.83
2018-09-18T08:14:12.225Z,98211.20
2018-09-18T08:16:41.023Z,98208.84
2018-09-18T08:19:09.823Z,98205.28
2018-09-18T08:21:38.487Z,98206.41
2018-09-18T08:24:07.590Z,98207.83
2018-09-18T08:26:36.350Z,98197.54
2018-09-18T08:29:05.557Z,98200.13
2018-09-18T08:31:34.455Z,98198.88
2018-09-18T08:34:03.033Z,98205.09
2018-09-18T08:36:31.802Z,98205.33
2018-09-18T08:39:00.581Z,98211.03
2018-09-18T08:41:29.608Z,98211.84
2018-09-18T08:43:58.633Z,98211.44
2018-09-18T08:46:27.287Z,98217.11
2018-09-18T08:48:57.442Z,98214.47
2018-09-18T08:51:26.944Z,98211.17
2018-09-18T08:53:55.893Z,98211.96
2018-09-18T08:56:24.698Z,98213.02
2018-09-18T08:58:53.332Z,98214.01
2018-09-18T09:01:22.476Z,98207.67
2018-09-18T09:03:51.888Z,98218.17
2018-09-18T09:06:20.733Z,98215.42
2018-09-18T09:08:49.759Z,98215.97
2018-09-18T09:11:18.436Z,98217.77
2018-09-18T09:13:48.038Z,98213.64
2018-09-18T09:16:16.873Z,98213.28
2018-09-18T09:18:46.724Z,98213.09
2018-09-18T09:21:16.162Z,98212.45
2018-09-18T09:23:45.305Z,98204.33
2018-09-18T09:26:13.978Z,98200.61
2018-09-18T09:28:42.813Z,98198.36
2018-09-18T09:31:11.490Z,98181.89
2018-09-18T09:33:40.324Z,98189.30
2018-09-18T09:36:09.100Z,98193.15
2018-09-18T09:38:37.987Z,98189.97
2018-09-18T09:41:06.849Z,98192.69
2018-09-18T09:43:35.481Z,98187.13
2018-09-18T09:46:04.647Z,98184.22
2018-09-18T09:48:33.822Z,98189.50
2018-09-18T09:51:04.157Z,98179.39
2018-09-18T09:53:33.218Z,98181.28
2018-09-18T09:56:02.887Z,98186.74
2018-09-18T09:58:31.629Z,98183.83
2018-09-18T10:01:05.897Z,98180.02
2018-09-18T10:03:34.643Z,98175.17
2018-09-18T10:06:04.057Z,98179.38
2018-09-18T10:08:33.392Z,98168.36
2018-09-18T10:11:02.790Z,98176.55
2018-09-18T10:13:31.603Z,98183.03
2018-09-18T10:16:00.219Z,98176.52
2018-09-18T10:18:28.998Z,98178.18
2018-09-18T10:20:57.705Z,98176.81
2018-09-18T10:23:26.300Z,98173.43
2018-09-18T10:25:55.153Z,98172.60
2018-09-18T10:28:23.924Z,98174.88
2018-09-18T10:30:52.794Z,98171.17
2018-09-18T10:33:21.543Z,98174.63
2018-09-18T10:35:50.239Z,98168.48
2018-09-18T10:38:19.285Z,98160.55
2018-09-18T10:40:48.220Z,98159.91
2018-09-18T10:43:17.048Z,98151.29
2018-09-18T10:45:45.981Z,98147.88
2018-09-18T10:48:14.778Z,98142.68
2018-09-18T10:50:43.666Z,98140.44
2018-09-18T10:53:12.550Z,98135.62
2018-09-18T10:55:41.524Z,98135.63
2018-09-18T10:58:11.148Z,98134.99
2018-09-18T11:00:40.379Z,98123.97
2018-09-18T11:03:09.793Z,98126.71
2018-09-18T11:05:39.806Z,98130.52
2018-09-18T11:08:08.656Z,98127.10
2018-09-18T11:10:37.405Z,98126.95
2018-09-18T11:13:06.523Z,98131.55
2018-09-18T11:15:35.658Z,98129.57
2018-09-18T11:18:04.978Z,98118.58
2018-09-18T11:20:34.298Z,98120.78
2018-09-18T11:23:03.711Z,98112.63
2018-09-18T11:25:32.624Z,98107.61
2018-09-18T11:28:01.722Z,98116.70
2018-09-18T11:30:31.160Z,98112.70
2018-09-18T11:32:59.871Z,98116.63
2018-09-18T11:35:29.129Z,98112.19
2018-09-18T11:37:57.765Z,98104.77
2018-09-18T11:40:26.994Z,98099.31
2018-09-18T11:42:56.274Z,98097.31
2018-09-18T11:45:25.003Z,98102.80
2018-09-18T11:47:53.711Z,98093.91
2018-09-18T11:50:22.710Z,98097.64
2018-09-18T11:52:51.749Z,98099.94
2018-09-18T11:55:21.349Z,98098.75
2018-09-18T11:57:50.091Z,98100.12
2018-09-18T12:00:19.654Z,98101.64
2018-09-18T12:02:48.406Z,98097.66
2018-09-18T12:05:17.241Z,98101.51
2018-09-18T12:07:46.360Z,98089.81
2018-09-18T12:10:15.034Z,98084.53
2018-09-18T12:12:43.895Z,98084.80
2018-09-18T12:15:13.045Z,98083.28
2018-09-18T12:17:42.281Z,98075.59
2018-09-18T12:20:11.329Z,98069.45
2018-09-18T12:22:40.134Z,98070.73
2018-09-18T12:25:09.009Z,98064.80
2018-09-18T12:27:38.244Z,98069.50
2018-09-18T12:30:07.966Z,98062.34
2018-09-18T12:32:36.634Z,98055.55
2018-09-18T12:35:05.864Z,98055.76
2018-09-18T12:37:34.543Z,98039.35
2018-09-18T12:40:03.288Z,98044.39
2018-09-18T12:42:32.589Z,98047.82
2018-09-18T12:45:02.143Z,98044.70
2018-09-18T12:47:30.960Z,98052.39
2018-09-18T12:50:00.622Z,98038.82
2018-09-18T12:52:29.321Z,98036.00
2018-09-18T12:54:58.340Z,98033.79
2018-09-18T12:57:27.217Z,98032.50
2018-09-18T12:59:56.285Z,98026.44
2018-09-18T13:02:24.985Z,98024.52
2018-09-18T13:04:53.625Z,98024.85
2018-09-18T13:07:23.204Z,98024.23
2018-09-18T13:09:52.121Z,98016.83
2018-09-18T13:12:21.249Z,98017.36
2018-09-18T13:14:50.440Z,98013.91
2018-09-18T13:17:19.644Z,98013.59
2018-09-18T13:19:48.938Z,98006.71
2018-09-18T13:22:18.126Z,98005.87
2018-09-18T13:24:46.820Z,98003.86
2018-09-18T13:27:15.694Z,98001.88
2018-09-18T13:29:44.856Z,98005.10
2018-09-18T13:32:13.644Z,97996.72
2018-09-18T13:34:42.265Z,97991.91
2018-09-18T13:37:11.825Z,97987.19
2018-09-18T13:39:41.831Z,97995.19
2018-09-18T13:42:10.535Z,97988.03
2018-09-18T13:44:39.206Z,97993.69
2018-09-18T13:47:08.516Z,97986.57
2018-09-18T13:49:37.336Z,97992.56
2018-09-18T13:52:06.750Z,97986.52
2018-09-18T13:54:35.736Z,97983.02
2018-09-18T13:57:04.610Z,97983.05
2018-09-18T13:59:33.663Z,97983.70
2018-09-18T14:02:02.410Z,97976.23
2018-09-18T14:04:31.216Z,97978.97
2018-09-18T14:06:59.875Z,97978.77
2018-09-18T14:09:28.826Z,97982.88
2018-09-18T14:11:58.336Z,97979.16
2018-09-18T14:14:28.008Z,97976.48
2018-09-18T14:16:57.109Z,97980.19
2018-09-18T14:19:26.416Z,97976.63
2018-09-18T14:21:55.294Z,97971.31
2018-09-18T14:24:24.189Z,97972.86
2018-09-18T14:26:52.939Z,97962.39
2018-09-18T14:29:21.971Z,97961.48
2018-09-18T14:31:50.867Z,97958.90
2018-09-18T14:34:19.649Z,97958.11
2018-09-18T14:36:48.948Z,97957.61
2018-09-18T14:39:18.091Z,97960.26
2018-09-18T14:41:47.701Z,97950.19
2018-09-18T14:44:16.551Z,97954.36
2018-09-18T14:46:45.461Z,97953.58
2018-09-18T14:49:14.386Z,97946.88
2018-09-18T14:51:43.368Z,97944.89
2018-09-18T14:54:12.172Z,97945.83
2018-09-18T14:56:41.065Z,97947.38
2018-09-18T14:59:09.659Z,97951.95
2018-09-18T15:01:38.515Z,97955.27
2018-09-18T15:04:07.448Z,97956.70
2018-09-18T15:06:36.256Z,97952.69
2018-09-18T15:09:06.980Z,97954.60
2018-09-18T15:11:35.751Z,97950.86
2018-09-18T15:14:04.641Z,97957.56
2018-09-18T15:16:33.637Z,97949.89
2018-09-18T15:19:02.749Z,97949.91
2018-09-18T15:21:31.632Z,97948.56
2018-09-18T15:24:01.121Z,97950.30
2018-09-18T15:26:29.817Z,97948.73
2018-09-18T15:28:58.610Z,97960.59
2018-09-18T15:31:28.951Z,97967.05
2018-09-18T15:33:57.760Z,97969.10
2018-09-18T15:36:27.446Z,97964.66
2018-09-18T15:38:56.236Z,97966.16
2018-09-18T15:41:25.487Z,97970.19
2018-09-18T15:43:55.086Z,97962.38
2018-09-18T15:46:25.057Z,97962.64
2018-09-18T15:48:54.568Z,97963.98
2018-09-18T15:51:23.661Z,97963.86
2018-09-18T15:53:52.296Z,97966.75
2018-09-18T15:56:21.192Z,97972.78
2018-09-18T15:58:51.046Z,97994.89
2018-09-18T16:01:20.805Z,98001.17
2018-09-18T16:03:49.886Z,97998.89
2018-09-18T16:06:18.699Z,97997.83
2018-09-18T16:08:48.187Z,97999.56
2018-09-18T16:11:17.389Z,97992.70
2018-09-18T16:13:46.311Z,97989.55
2018-09-18T16:16:15.914Z,97991.74
2018-09-18T16:18:45.237Z,97993.95
2018-09-18T16:21:13.981Z,97993.95
2018-09-18T16:23:42.951Z,98001.45
2018-09-18T16:26:11.787Z,98010.03
2018-09-18T16:28:40.928Z,98002.03
2018-09-18T16:31:09.830Z,98005.28
2018-09-18T16:33:38.740Z,98001.41
2018-09-18T16:36:07.850Z,98001.91
2018-09-18T16:38:37.100Z,98002.64
2018-09-18T16:41:06.157Z,98009.30
2018-09-18T16:43:35.337Z,98017.13
2018-09-18T16:46:04.695Z,98022.11
2018-09-18T16:48:33.798Z,98020.95
2018-09-18T16:51:03.007Z,98018.27
2018-09-18T16:53:31.881Z,98028.58
2018-09-18T16:56:02.545Z,98027.37
2018-09-18T16:58:31.311Z,98027.02
2018-09-18T17:01:00.855Z,98029.45
2018-09-18T17:03:30.141Z,98029.69
2018-09-18T17:05:58.979Z,98030.30
2018-09-18T17:08:28.754Z,98033.87
2018-09-18T17:10:57.448Z,98034.25
2018-09-18T17:13:26.260Z,98030.91
2018-09-18T17:15:55.304Z,98028.94
2018-09-18T17:18:24.324Z,98022.23
2018-09-18T17:20:53.139Z,98028.15
2018-09-18T17:23:22.062Z,98031.91
2018-09-18T17:25:51.240Z,98034.46
2018-09-18T17:28:20.318Z,98043.13
2018-09-18T17:30:49.612Z,98051.00
2018-09-18T17:33:18.962Z,98067.55
2018-09-18T17:35:48.640Z,98067.08
2018-09-18T17:38:18.301Z,98061.77
2018-09-18T17:40:47.670Z,98056.02
2018-09-18T17:43:17.502Z,98061.37
2018-09-18T17:45:46.276Z,98075.55
2018-09-18T17:48:15.310Z,98111.03
2018-09-18T17:50:44.313Z,98122.70
2018-09-18T17:53:13.796Z,98120.91
2018-09-18T17:55:43.005Z,98122.09
2018-09-18T17:58:12.040Z,98125.39
2018-09-18T18:00:41.517Z,98150.25
2018-09-18T18:03:10.478Z,98151.74
2018-09-18T18:05:39.771Z,98167.69
2018-09-18T18:08:08.603Z,98160.55
2018-09-18T18:10:38.185Z,98147.67
2018-09-18T18:13:07.486Z,98140.77
2018-09-18T18:15:36.563Z,98153.03
2018-09-18T18:18:05.963Z,98162.02
2018-09-18T18:20:35.013Z,98173.23
2018-09-18T18:23:04.270Z,98176.92
2018-09-18T18:25:33.687Z,98178.33
2018-09-18T18:28:02.732Z,98182.78
2018-09-18T18:30:31.972Z,98184.91
2018-09-18T18:33:01.092Z,98179.52
2018-09-18T18:35:30.390Z,98164.54
2018-09-18T18:37:59.610Z,98155.25
2018-09-18T18:40:28.642Z,98151.47
2018-09-18T18:42:58.272Z,98157.09
2018-09-18T18:45:27.197Z,98166.50
2018-09-18T18:47:56.139Z,98168.20
2018-09-18T18:50:24.916Z,98176.22
2018-09-18T18:52:53.920Z,98172.63
2018-09-18T18:55:23.234Z,98172.09
2018-09-18T18:57:52.133Z,98169.50
2018-09-18T19:00:21.063Z,98161.73
2018-09-18T19:02:49.850Z,98163.52
2018-09-18T19:05:19.119Z,98166.11
2018-09-18T19:07:47.985Z,98158.35
2018-09-18T19:10:17.568Z,98152.16
2018-09-18T19:12:46.800Z,98156.19
2018-09-18T19:15:16.052Z,98156.56
2018-09-18T19:17:45.424Z,98157.83
2018-09-18T19:20:14.410Z,98176.30
2018-09-18T19:22:43.684Z,98175.97
2018-09-18T19:25:12.867Z,98185.73
2018-09-18T19:27:42.029Z,98181.02
2018-09-18T19:30:11.162Z,98179.86
2018-09-18T19:32:40.398Z,98177.93
2018-09-18T19:35:09.430Z,98166.49
2018-09-18T19:37:38.366Z,98179.86
2018-09-18T19:40:08.168Z,98169.53
2018-09-18T19:42:37.431Z,98160.50
2018-09-18T19:45:06.404Z,98162.60
2018-09-18T19:47:35.268Z,98159.62
2018-09-18T19:50:04.187Z,98164.61
2018-09-18T19:52:32.972Z,98172.91
2018-09-18T19:55:02.550Z,98177.28
2018-09-18T19:57:31.742Z,98184.59
2018-09-18T20:00:00.843Z,98190.76
2018-09-18T20:02:30.251Z,98176.79
2018-09-18T20:04:59.100Z,98191.94
2018-09-18T20:07:27.990Z,98193.94
2018-09-18T20:09:57.083Z,98197.56
2018-09-18T20:12:26.168Z,98216.86
2018-09-18T20:14:55.640Z,98219.16
2018-09-18T20:17:24.568Z,98219.22
2018-09-18T20:19:53.987Z,98222.16
2018-09-18T20:22:22.879Z,98233.19
2018-09-18T20:24:52.227Z,98235.39
2018-09-18T20:27:21.648Z,98243.97
2018-09-18T20:29:50.706Z,98259.81
2018-09-18T20:32:19.960Z,98255.73
2018-09-18T20:34:49.082Z,98254.28
2018-09-18T20:37:18.309Z,98257.08
2018-09-18T20:39:47.320Z,98260.15
2018-09-18T20:42:16.836Z,98261.28
2018-09-18T20:44:45.582Z,98269.27
2018-09-18T20:47:14.571Z,98277.48
2018-09-18T20:49:43.491Z,98273.70
2018-09-18T20:52:12.975Z,98274.28
2018-09-18T20:54:41.893Z,98284.10
2018-09-18T20:57:11.218Z,98283.41
2018-09-18T20:59:39.996Z,98295.73
2018-09-18T21:02:09.833Z,98292.78
2018-09-18T21:04:38.861Z,98283.63
2018-09-18T21:07:07.735Z,98289.70
2018-09-18T21:09:37.328Z,98285.00
2018-09-18T21:12:06.486Z,98275.66
2018-09-18T21:14:35.896Z,98277.27
2018-09-18T21:17:04.580Z,98276.13
2018-09-18T21:19:33.334Z,98269.28
2018-09-18T21:22:02.316Z,98275.22
2018-09-18T21:24:31.596Z,98281.14
2018-09-18T21:27:01.334Z,98279.98
2018-09-18T21:29:30.638Z,98277.71
2018-09-18T21:31:59.914Z,98276.11
2018-09-18T21:34:28.486Z,98278.39
2018-09-18T21:36:57.202Z,98285.80
2018-09-18T21:39:25.942Z,98287.83
2018-09-18T21:41:54.853Z,98285.66
2018-09-18T21:44:24.075Z,98292.03
2018-09-18T21:46:52.779Z,98299.05
2018-09-18T21:49:21.600Z,98299.95
2018-09-18T21:51:50.249Z,98303.95
2018-09-18T21:54:19.041Z,98312.04
2018-09-18T21:56:47.836Z,98303.80
2018-09-18T21:59:16.732Z,98308.80
2018-09-18T22:01:45.909Z,98307.27
2018-09-18T22:04:15.229Z,98300.78
2018-09-18T22:06:44.278Z,98306.12
2018-09-18T22:09:12.929Z,98309.63
2018-09-18T22:11:41.678Z,98306.33
2018-09-18T22:14:10.420Z,98306.31
2018-09-18T22:16:39.166Z,98316.87
2018-09-18T22:19:08.004Z,98309.97
2018-09-18T22:21:36.937Z,98309.48
2018-09-18T22:24:06.164Z,98300.36
2018-09-18T22:26:34.975Z,98305.92
2018-09-18T22:29:04.169Z,98307.38
2018-09-18T22:31:33.429Z,98306.23
2018-09-18T22:34:02.126Z,98304.19
2018-09-18T22:36:30.918Z,98305.52
2018-09-18T22:39:01.038Z,98300.77
2018-09-18T22:41:30.596Z,98307.27
2018-09-18T22:44:00.000Z,98317.33
2018-09-18T22:46:28.837Z,98320.50
2018-09-18T22:48:57.467Z,98319.82
2018-09-18T22:51:26.527Z,98317.77
2018-09-18T22:53:55.418Z,98317.14
2018-09-18T22:56:25.041Z,98321.56
2018-09-18T22:58:53.886Z,98320.80
2018-09-18T23:01:23.394Z,98332.29
2018-09-18T23:03:52.577Z,98323.16
2018-09-18T23:06:21.708Z,98327.42
2018-09-18T23:08:51.044Z,98329.98
2018-09-18T23:11:19.817Z,98324.72
2018-09-18T23:13:48.728Z,98327.09
2018-09-18T23:16:17.386Z,98331.56
2018-09-18T23:18:45.999Z,98326.16
2018-09-18T23:21:14.688Z,98327.66
2018-09-18T23:23:43.530Z,98331.03
2018-09-18T23:26:12.955Z,98327.23
2018-09-18T23:28:42.098Z,98332.81
2018-09-18T23:31:10.776Z,98336.15
2018-09-18T23:33:39.437Z,98333.84
2018-09-18T23:36:08.869Z,98333.38
2018-09-18T23:38:37.920Z,98329.06
2018-09-18T23:41:07.096Z,98323.36
2018-09-18T23:43:36.298Z,98324.81
2018-09-18T23:46:05.158Z,98323.31
2018-09-18T23:48:34.766Z,98321.91
2018-09-18T23:51:03.330Z,98321.74
2018-09-18T23:53:31.919Z,98333.41
2018-09-18T23:56:02.669Z,98325.41
2018-09-18T23:58:31.325Z,98322.84
